Time;durP1;ratioP1;P1;durP2;ratioP2;P2;SDS_P1;SDS_P2;PMS_P1;PMS_P2;Temp;Humidity;BMP_temperature;BMP_pressure;BME280_temperature;BME280_humidity;BME280_pressure;Samples;Min_cycle;Max_cycle;Signal;HPM_P1;HPM_P2
2021/11/07 00:00:10;;;;;;;58.35;3.00;;;3.70;1.00;;;;;;5133937;27;20698;-69
2021/11/07 00:02:50;;;;;;;58.92;3.30;;;3.70;1.00;;;;;;5133963;27;20203;-69
2021/11/07 00:05:27;;;;;;;60.55;5.03;;;3.60;1.00;;;;;;5134114;27;20206;-69
2021/11/07 00:08:12;;;;;;;58.40;2.78;;;3.60;1.00;;;;;;5134316;27;20206;-69
2021/11/07 00:10:41;;;;;;;58.70;3.25;;;3.50;1.00;;;;;;5133614;27;20230;-69
2021/11/07 00:13:17;;;;;;;58.50;2.80;;;3.60;1.00;;;;;;5133759;27;20210;-69
2021/11/07 00:15:45;;;;;;;58.55;3.15;;;3.60;1.00;;;;;;5133353;27;20806;-69
2021/11/07 00:18:15;;;;;;;60.42;3.53;;;3.60;1.00;;;;;;5133051;27;20209;-69
2021/11/07 00:20:50;;;;;;;58.47;2.97;;;3.60;1.00;;;;;;5133620;27;20215;-69
2021/11/07 00:23:28;;;;;;;61.20;3.20;;;3.60;1.00;;;;;;5133893;27;20297;-69
2021/11/07 00:26:00;;;;;;;58.25;2.90;;;3.50;1.00;;;;;;5133060;27;20739;-69
2021/11/07 00:28:33;;;;;;;58.47;3.03;;;3.50;1.00;;;;;;5133707;27;20214;-69
2021/11/07 00:31:07;;;;;;;58.85;3.40;;;3.30;1.00;;;;;;5133398;27;20238;-69
2021/11/07 00:33:48;;;;;;;58.35;3.30;;;3.20;1.00;;;;;;5133150;27;20211;-69
2021/11/07 00:36:25;;;;;;;58.38;2.95;;;3.10;1.00;;;;;;5132821;27;20675;-69
2021/11/07 00:38:59;;;;;;;58.67;3.10;;;3.00;1.00;;;;;;5133172;27;20201;-69
2021/11/07 00:41:33;;;;;;;58.70;3.40;;;2.90;1.00;;;;;;5133129;27;20223;-69
2021/11/07 00:44:05;;;;;;;58.80;3.50;;;2.80;1.00;;;;;;5133142;27;20252;-69
2021/11/07 00:46:37;;;;;;;58.58;3.10;;;2.80;1.00;;;;;;5132703;27;20639;-69
2021/11/07 00:49:07;;;;;;;58.55;3.20;;;2.80;1.00;;;;;;5133005;27;20640;-69
2021/11/07 00:51:41;;;;;;;58.58;3.20;;;2.80;1.00;;;;;;5133176;27;20254;-69
2021/11/07 00:54:23;;;;;;;58.88;3.40;;;2.80;1.00;;;;;;5133321;27;20601;-69
2021/11/07 00:56:52;;;;;;;58.67;3.40;;;2.80;1.00;;;;;;5132733;27;20207;-69
2021/11/07 00:59:34;;;;;;;58.35;3.17;;;2.80;1.00;;;;;;5132880;27;20582;-69
2021/11/07 01:02:10;;;;;;;58.47;3.00;;;2.90;1.00;;;;;;5133116;27;20207;-69
2021/11/07 01:04:38;;;;;;;58.58;3.13;;;2.90;1.00;;;;;;5133046;27;20263;-69
2021/11/07 01:07:05;;;;;;;58.38;3.00;;;3.00;1.00;;;;;;5132657;27;20210;-69
2021/11/07 01:09:34;;;;;;;58.63;3.30;;;3.10;1.00;;;;;;5132682;27;20228;-69
2021/11/07 01:12:01;;;;;;;58.58;2.95;;;3.10;1.00;;;;;;5132802;27;20246;-69
2021/11/07 01:14:28;;;;;;;58.50;3.03;;;3.20;1.00;;;;;;5133076;27;20199;-69
2021/11/07 01:16:55;;;;;;;58.17;2.80;;;3.20;1.00;;;;;;5132529;27;20295;-69
2021/11/07 01:19:22;;;;;;;58.38;3.00;;;3.20;1.00;;;;;;5132783;27;20290;-69
2021/11/07 01:21:49;;;;;;;58.40;3.20;;;3.30;1.00;;;;;;5132674;27;20309;-69
2021/11/07 01:24:19;;;;;;;58.38;3.10;;;3.40;1.00;;;;;;5132765;27;20206;-69
2021/11/07 01:26:50;;;;;;;58.50;3.10;;;3.40;1.00;;;;;;5132415;27;20238;-69
2021/11/07 01:29:20;;;;;;;58.40;2.90;;;3.40;1.00;;;;;;5133132;27;20206;-69
2021/11/07 01:31:48;;;;;;;58.50;2.95;;;3.40;1.00;;;;;;5136963;27;20283;-69
2021/11/07 01:34:21;;;;;;;58.20;2.85;;;3.40;1.00;;;;;;5136799;27;20214;-69
2021/11/07 01:36:51;;;;;;;58.55;3.20;;;3.30;1.00;;;;;;5136474;27;20238;-69
2021/11/07 01:39:21;;;;;;;58.60;3.40;;;3.30;1.00;;;;;;5136635;27;20207;-69
2021/11/07 01:42:08;;;;;;;58.90;3.35;;;3.20;1.00;;;;;;5137036;27;20238;-69
2021/11/07 01:44:41;;;;;;;58.35;3.00;;;3.20;1.00;;;;;;5136736;27;20251;-69
2021/11/07 01:47:08;;;;;;;58.35;2.92;;;3.20;1.00;;;;;;5136347;27;20198;-69
2021/11/07 01:49:38;;;;;;;58.78;3.00;;;3.20;1.00;;;;;;5136632;27;20238;-69
2021/11/07 01:52:09;;;;;;;58.58;3.20;;;3.20;1.00;;;;;;5136708;27;20223;-69
2021/11/07 01:54:47;;;;;;;58.28;3.00;;;3.20;1.00;;;;;;5136630;27;20210;-69
2021/11/07 01:57:15;;;;;;;60.17;4.38;;;3.20;1.00;;;;;;5136228;27;20295;-69
2021/11/07 01:59:47;;;;;;;58.03;3.20;;;3.10;1.00;;;;;;5136184;27;20632;-69
2021/11/07 02:02:15;;;;;;;58.58;2.90;;;3.10;1.00;;;;;;5136283;27;20289;-69
2021/11/07 02:04:42;;;;;;;58.60;3.15;;;3.10;1.00;;;;;;5136299;27;20346;-69
2021/11/07 02:07:10;;;;;;;58.67;3.10;;;3.00;1.00;;;;;;5135893;27;20207;-69
2021/11/07 02:09:37;;;;;;;58.25;3.30;;;3.00;1.00;;;;;;5134271;27;20671;-69
2021/11/07 02:12:05;;;;;;;58.17;3.20;;;3.00;1.00;;;;;;5136221;27;20666;-69
2021/11/07 02:14:34;;;;;;;58.47;3.70;;;3.00;1.00;;;;;;5136212;27;20223;-68
2021/11/07 02:17:01;;;;;;;59.40;3.67;;;3.00;1.00;;;;;;5135589;27;20203;-69
2021/11/07 02:19:28;;;;;;;58.40;3.10;;;3.00;1.00;;;;;;5136050;27;20713;-69
2021/11/07 02:21:56;;;;;;;58.58;3.50;;;3.00;1.00;;;;;;5135742;27;20305;-69
2021/11/07 02:24:24;;;;;;;58.58;3.08;;;3.00;1.00;;;;;;5136258;27;20244;-69
2021/11/07 02:26:54;;;;;;;58.90;4.25;;;3.00;1.00;;;;;;5135822;27;20199;-69
2021/11/07 02:29:22;;;;;;;58.45;3.08;;;3.00;1.00;;;;;;5136236;27;20199;-69
2021/11/07 02:31:49;;;;;;;58.67;3.50;;;3.00;1.00;;;;;;5135717;27;20636;-69
2021/11/07 02:34:16;;;;;;;58.78;3.55;;;3.00;1.00;;;;;;5135573;27;20219;-69
2021/11/07 02:36:43;;;;;;;58.58;3.10;;;3.00;1.00;;;;;;5135456;27;20213;-69
2021/11/07 02:39:13;;;;;;;59.17;4.15;;;3.00;1.00;;;;;;5135842;27;20233;-69
2021/11/07 02:41:40;;;;;;;59.17;3.60;;;2.90;1.00;;;;;;5135111;27;20219;-69
2021/11/07 02:44:07;;;;;;;58.70;3.40;;;2.80;1.00;;;;;;5135542;27;20202;-69
2021/11/07 02:46:34;;;;;;;58.47;2.95;;;2.80;1.00;;;;;;5135342;27;20234;-69
2021/11/07 02:49:04;;;;;;;58.65;3.58;;;2.70;1.00;;;;;;5135376;27;20289;-69
2021/11/07 02:51:33;;;;;;;58.55;3.10;;;2.60;1.00;;;;;;5135478;27;20254;-69
2021/11/07 02:54:01;;;;;;;58.47;3.00;;;2.60;1.00;;;;;;5135491;27;20286;-69
2021/11/07 02:56:30;;;;;;;58.65;3.30;;;2.60;1.00;;;;;;5135144;27;20205;-69
2021/11/07 02:58:57;;;;;;;58.42;3.22;;;2.50;1.00;;;;;;5135345;27;20230;-69
2021/11/07 03:01:25;;;;;;;58.70;3.20;;;2.40;1.00;;;;;;5135076;27;20264;-69
2021/11/07 03:03:58;;;;;;;58.38;3.10;;;2.30;1.00;;;;;;5135344;27;20199;-69
2021/11/07 03:06:25;;;;;;;58.75;3.28;;;2.30;1.00;;;;;;5134964;27;20207;-69
2021/11/07 03:08:52;;;;;;;58.30;2.83;;;2.30;1.00;;;;;;5135061;27;20238;-70
2021/11/07 03:11:19;;;;;;;58.55;3.13;;;2.30;1.00;;;;;;5134861;27;20262;-69
2021/11/07 03:13:49;;;;;;;58.58;3.10;;;2.20;1.00;;;;;;5134851;27;20576;-69
2021/11/07 03:16:16;;;;;;;58.38;3.53;;;2.20;1.00;;;;;;5134638;27;20207;-69
2021/11/07 03:18:43;;;;;;;58.58;3.03;;;2.10;1.00;;;;;;5134831;27;20739;-69
2021/11/07 03:21:12;;;;;;;57.92;3.10;;;2.10;1.00;;;;;;5134730;27;20306;-69
2021/11/07 03:23:39;;;;;;;58.15;3.45;;;2.10;1.00;;;;;;5134906;27;20206;-69
2021/11/07 03:26:09;;;;;;;60.33;3.50;;;2.00;1.00;;;;;;5134366;27;20757;-69
2021/11/07 03:28:38;;;;;;;63.75;5.07;;;2.00;1.00;;;;;;5134628;27;20294;-69
2021/11/07 03:31:10;;;;;;;59.47;3.85;;;1.90;1.00;;;;;;5134643;27;20223;-69
2021/11/07 03:33:41;;;;;;;58.33;2.97;;;1.90;1.00;;;;;;5134759;27;20211;-69
2021/11/07 03:36:08;;;;;;;58.22;3.08;;;1.90;1.00;;;;;;5134405;27;20203;-69
2021/11/07 03:38:36;;;;;;;58.78;3.30;;;1.80;1.00;;;;;;5134613;27;20199;-69
2021/11/07 03:41:03;;;;;;;58.38;3.05;;;1.80;1.00;;;;;;5133827;27;20319;-69
2021/11/07 03:43:30;;;;;;;58.13;3.20;;;1.70;1.00;;;;;;5134378;27;20294;-70
2021/11/07 03:45:58;;;;;;;58.80;3.92;;;1.70;1.00;;;;;;5134079;27;20289;-69
2021/11/07 03:48:26;;;;;;;58.55;2.95;;;1.70;1.00;;;;;;5134521;27;20399;-69
2021/11/07 03:50:54;;;;;;;58.58;3.20;;;1.60;1.00;;;;;;5134005;27;20317;-69
2021/11/07 03:53:21;;;;;;;58.47;3.50;;;1.60;1.00;;;;;;5133325;27;20209;-69
2021/11/07 03:55:48;;;;;;;58.78;3.10;;;1.50;1.00;;;;;;5134048;27;20209;-70
2021/11/07 03:58:15;;;;;;;58.35;3.10;;;1.50;1.00;;;;;;5134298;27;20234;-70
2021/11/07 04:00:42;;;;;;;59.85;4.30;;;1.50;1.00;;;;;;5134101;27;20262;-69
2021/11/07 04:03:09;;;;;;;58.83;3.30;;;1.40;1.00;;;;;;5134083;27;20263;-69
2021/11/07 04:05:38;;;;;;;58.17;2.92;;;1.40;1.00;;;;;;5133599;27;20208;-70
2021/11/07 04:08:06;;;;;;;58.47;3.47;;;1.40;1.00;;;;;;5133831;27;20213;-70
2021/11/07 04:10:34;;;;;;;58.47;3.53;;;1.30;1.00;;;;;;5133884;27;20219;-69
2021/11/07 04:13:01;;;;;;;58.38;3.00;;;1.30;1.00;;;;;;5133987;27;20625;-69
2021/11/07 04:15:28;;;;;;;58.58;3.00;;;1.30;1.00;;;;;;5133382;27;20235;-69
2021/11/07 04:17:55;;;;;;;59.38;4.35;;;1.30;1.00;;;;;;5133660;27;20751;-69
2021/11/07 04:20:22;;;;;;;58.88;3.20;;;1.40;1.00;;;;;;5133536;27;20261;-69
2021/11/07 04:22:50;;;;;;;58.70;2.80;;;1.40;1.00;;;;;;5133704;27;20246;-69
2021/11/07 04:25:17;;;;;;;58.08;3.28;;;1.40;1.00;;;;;;5133635;27;20286;-68
2021/11/07 04:27:44;;;;;;;58.40;2.60;;;1.30;1.00;;;;;;5133350;27;20289;-69
2021/11/07 04:30:12;;;;;;;58.45;2.90;;;1.30;1.00;;;;;;5133533;27;20265;-70
2021/11/07 04:32:39;;;;;;;58.45;3.40;;;1.20;1.00;;;;;;5133416;27;20329;-69
2021/11/07 04:35:08;;;;;;;58.65;3.03;;;1.20;1.00;;;;;;5133058;27;20709;-69
2021/11/07 04:37:38;;;;;;;60.45;4.70;;;1.20;1.00;;;;;;5133347;27;20203;-69
2021/11/07 04:40:08;;;;;;;62.17;4.50;;;1.20;1.00;;;;;;5133352;27;20230;-69
2021/11/07 04:42:35;;;;;;;58.75;3.00;;;1.20;1.00;;;;;;5133759;27;20231;-69
2021/11/07 04:45:04;;;;;;;58.65;2.80;;;1.20;1.00;;;;;;5133382;27;20627;-69
2021/11/07 04:47:31;;;;;;;58.58;3.50;;;1.20;1.00;;;;;;5132880;27;20249;-69
2021/11/07 04:49:58;;;;;;;58.47;3.00;;;1.20;1.00;;;;;;5133284;27;20265;-69
2021/11/07 04:52:25;;;;;;;58.58;3.10;;;1.20;1.00;;;;;;5133062;27;20313;-69
2021/11/07 04:54:51;;;;;;;58.60;3.20;;;1.10;1.00;;;;;;5133178;27;20207;-69
2021/11/07 04:57:20;;;;;;;58.80;3.03;;;1.10;1.00;;;;;;5132744;27;20203;-70
2021/11/07 04:59:46;;;;;;;59.08;3.70;;;1.10;1.00;;;;;;5133060;27;20207;-70
2021/11/07 05:02:13;;;;;;;58.65;3.00;;;1.00;1.00;;;;;;5133137;27;20607;-69
2021/11/07 05:04:41;;;;;;;58.45;3.25;;;1.00;1.00;;;;;;5133084;27;20241;-69
2021/11/07 05:07:09;;;;;;;58.45;3.30;;;1.00;1.00;;;;;;5133464;27;20667;-69
2021/11/07 05:09:36;;;;;;;58.35;3.00;;;0.90;1.00;;;;;;5133637;27;20238;-69
2021/11/07 05:12:03;;;;;;;58.60;3.35;;;0.90;1.00;;;;;;5133760;27;20230;-69
2021/11/07 05:14:32;;;;;;;58.35;3.28;;;0.90;1.00;;;;;;5133929;27;20213;-69
2021/11/07 05:16:58;;;;;;;58.90;3.30;;;0.90;1.00;;;;;;5133654;27;20209;-69
2021/11/07 05:19:25;;;;;;;58.47;3.10;;;0.80;1.00;;;;;;5133408;27;20239;-69
2021/11/07 05:21:52;;;;;;;58.78;3.72;;;0.80;1.00;;;;;;5132917;27;20258;-69
2021/11/07 05:24:19;;;;;;;58.03;3.47;;;0.80;1.00;;;;;;5132819;27;20214;-69
2021/11/07 05:26:49;;;;;;;58.65;3.70;;;0.80;1.00;;;;;;5132352;27;20289;-69
2021/11/07 05:29:16;;;;;;;58.78;3.42;;;0.80;1.00;;;;;;5132642;27;20641;-70
2021/11/07 05:31:44;;;;;;;58.78;3.65;;;0.70;1.00;;;;;;5132730;27;20594;-70
2021/11/07 05:34:11;;;;;;;58.45;3.20;;;0.70;1.00;;;;;;5132843;27;20303;-70
2021/11/07 05:36:41;;;;;;;59.55;4.38;;;0.70;1.00;;;;;;5132414;27;20253;-70
2021/11/07 05:39:08;;;;;;;63.25;4.68;;;0.80;1.00;;;;;;5132830;27;20207;-69
2021/11/07 05:41:35;;;;;;;60.75;4.25;;;0.80;1.00;;;;;;5132361;27;20219;-69
2021/11/07 05:44:01;;;;;;;58.78;4.03;;;0.70;1.00;;;;;;5132497;27;20207;-69
2021/11/07 05:46:28;;;;;;;59.00;3.85;;;0.70;1.00;;;;;;5132329;27;20604;-69
2021/11/07 05:48:57;;;;;;;59.17;4.20;;;0.60;1.00;;;;;;5132580;27;20301;-69
2021/11/07 05:51:23;;;;;;;58.45;3.30;;;0.60;1.00;;;;;;5132344;27;20317;-69
2021/11/07 05:53:51;;;;;;;59.00;3.97;;;0.60;1.00;;;;;;5132468;27;20208;-70
2021/11/07 05:56:18;;;;;;;58.35;4.05;;;0.60;1.00;;;;;;5131930;27;20256;-70
2021/11/07 05:58:45;;;;;;;59.78;3.88;;;0.60;1.00;;;;;;5132344;27;20242;-69
2021/11/07 06:01:12;;;;;;;59.90;5.60;;;0.60;1.00;;;;;;5132431;27;20237;-69
2021/11/07 06:03:39;;;;;;;58.88;3.63;;;0.60;1.00;;;;;;5132339;27;20207;-69
2021/11/07 06:06:07;;;;;;;60.28;6.20;;;0.60;1.00;;;;;;5132185;27;20235;-69
2021/11/07 06:08:34;;;;;;;58.30;3.60;;;0.50;1.00;;;;;;5132330;27;20213;-69
2021/11/07 06:11:02;;;;;;;59.47;4.35;;;0.50;1.00;;;;;;5132148;27;20311;-69
2021/11/07 06:13:29;;;;;;;59.10;4.20;;;0.50;1.00;;;;;;5132242;27;20318;-69
2021/11/07 06:15:57;;;;;;;58.60;3.58;;;0.50;1.00;;;;;;5133232;27;20242;-69
2021/11/07 06:18:24;;;;;;;59.17;4.00;;;0.50;1.00;;;;;;5135982;27;20217;-69
2021/11/07 06:20:52;;;;;;;58.30;3.30;;;0.40;1.00;;;;;;5136254;27;20653;-69
2021/11/07 06:23:20;;;;;;;58.00;3.20;;;0.40;1.00;;;;;;5136035;27;20637;-70
2021/11/07 06:25:47;;;;;;;58.20;3.00;;;0.50;1.00;;;;;;5135880;27;20579;-70
2021/11/07 06:28:15;;;;;;;58.28;3.58;;;0.50;1.00;;;;;;5136109;27;20237;-70
2021/11/07 06:30:42;;;;;;;58.47;3.60;;;0.60;1.00;;;;;;5135789;27;20753;-70
2021/11/07 06:33:09;;;;;;;57.92;3.38;;;0.60;1.00;;;;;;5135929;27;20230;-69
2021/11/07 06:35:36;;;;;;;58.42;3.17;;;0.70;1.00;;;;;;5135391;27;20298;-69
2021/11/07 06:38:03;;;;;;;57.92;3.35;;;0.70;1.00;;;;;;5135725;27;20198;-69
2021/11/07 06:40:33;;;;;;;58.53;3.00;;;0.80;1.00;;;;;;5135872;27;20313;-69
2021/11/07 06:43:00;;;;;;;58.42;3.22;;;0.90;1.00;;;;;;5135746;27;20199;-69
2021/11/07 06:45:26;;;;;;;58.47;3.00;;;1.00;1.00;;;;;;5135647;27;20557;-69
2021/11/07 06:47:53;;;;;;;58.42;3.47;;;1.00;1.00;;;;;;5135652;27;20734;-69
2021/11/07 06:50:21;;;;;;;58.45;3.05;;;1.10;1.00;;;;;;5135416;27;20229;-70
2021/11/07 06:52:48;;;;;;;58.42;3.10;;;1.30;1.00;;;;;;5135648;27;20215;-70
2021/11/07 06:55:17;;;;;;;58.40;3.05;;;1.40;1.00;;;;;;5135264;27;20238;-70
2021/11/07 06:57:46;;;;;;;58.67;3.55;;;1.50;1.00;;;;;;5135284;27;20742;-70
2021/11/07 07:00:17;;;;;;;58.30;2.80;;;1.70;3.00;;;;;;5135354;27;20233;-70
2021/11/07 07:02:44;;;;;;;58.38;2.90;;;1.90;7.40;;;;;;5135268;27;20210;-70
2021/11/07 07:05:13;;;;;;;58.40;2.75;;;2.00;9.10;;;;;;5134990;27;20298;-70
2021/11/07 07:07:44;;;;;;;58.28;2.75;;;2.20;10.30;;;;;;5135152;27;20563;-70
2021/11/07 07:10:17;;;;;;;59.08;4.57;;;2.30;10.70;;;;;;5135227;27;20314;-70
2021/11/07 07:12:49;;;;;;;58.35;3.00;;;2.40;11.60;;;;;;5135112;27;20271;-70
2021/11/07 07:15:19;;;;;;;58.40;2.75;;;2.50;13.00;;;;;;5134871;27;20207;-70
2021/11/07 07:17:53;;;;;;;58.58;3.50;;;2.60;14.70;;;;;;5134645;27;20207;-70
2021/11/07 07:20:37;;;;;;;58.38;3.00;;;2.70;16.10;;;;;;5134841;27;20254;-70
2021/11/07 07:23:20;;;;;;;58.60;3.40;;;2.90;17.90;;;;;;5134900;27;20199;-70
2021/11/07 07:26:13;;;;;;;58.40;2.75;;;3.00;19.30;;;;;;5134557;27;20213;-70
2021/11/07 07:28:49;;;;;;;59.30;3.85;;;3.10;20.80;;;;;;5133923;27;20195;-69
2021/11/07 07:31:30;;;;;;;57.95;2.92;;;3.30;22.70;;;;;;5135005;27;20222;-70
2021/11/07 07:34:01;;;;;;;58.33;2.92;;;3.40;22.90;;;;;;5134703;27;20210;-70
2021/11/07 07:36:28;;;;;;;58.47;3.00;;;3.50;23.30;;;;;;5134269;27;20203;-70
2021/11/07 07:38:57;;;;;;;58.40;2.80;;;3.60;23.70;;;;;;5134986;27;20203;-68
2021/11/07 07:41:24;;;;;;;58.70;3.20;;;3.70;23.70;;;;;;5132121;27;20218;-68
2021/11/07 07:43:52;;;;;;;58.47;3.55;;;3.90;24.30;;;;;;5133500;27;20290;-69
2021/11/07 07:46:19;;;;;;;58.45;2.80;;;4.10;25.70;;;;;;5134106;27;20260;-69
2021/11/07 07:48:47;;;;;;;59.40;3.58;;;4.30;27.50;;;;;;5131877;27;20203;-69
2021/11/07 07:51:15;;;;;;;58.47;2.92;;;4.60;30.20;;;;;;5133019;27;20230;-69
2021/11/07 07:53:43;;;;;;;58.70;3.53;;;5.00;34.30;;;;;;5133481;27;20238;-69
2021/11/07 07:56:10;;;;;;;58.47;3.25;;;5.40;38.60;;;;;;5132745;27;20203;-69
2021/11/07 07:58:37;;;;;;;58.35;2.92;;;5.80;40.60;;;;;;5133333;27;20757;-69
2021/11/07 08:01:08;;;;;;;58.50;2.90;;;6.10;34.50;;;;;;5133352;27;20226;-68
2021/11/07 08:03:35;;;;;;;58.42;3.00;;;6.30;1.00;;;;;;5133630;27;20535;-68
2021/11/07 08:06:02;;;;;;;58.38;2.85;;;6.40;1.00;;;;;;5133225;27;20210;-68
2021/11/07 08:08:30;;;;;;;59.15;5.03;;;6.40;1.00;;;;;;5133516;27;20582;-68
2021/11/07 08:10:57;;;;;;;58.33;2.80;;;6.30;1.00;;;;;;5133563;27;20310;-68
2021/11/07 08:13:23;;;;;;;59.75;3.00;;;6.20;1.00;;;;;;5133377;27;20222;-68
2021/11/07 08:15:50;;;;;;;58.15;2.80;;;6.10;1.00;;;;;;5133067;27;20203;-69
2021/11/07 08:18:20;;;;;;;58.15;2.72;;;6.10;1.00;;;;;;5133770;27;20574;-69
2021/11/07 08:20:47;;;;;;;58.90;3.30;;;6.00;1.00;;;;;;5134063;27;20229;-69
2021/11/07 08:23:15;;;;;;;58.38;2.70;;;6.00;1.00;;;;;;5132470;27;20603;-70
2021/11/07 08:25:42;;;;;;;58.15;2.70;;;6.00;1.00;;;;;;5133303;27;20203;-70
2021/11/07 08:28:09;;;;;;;59.50;3.30;;;6.10;1.00;;;;;;5133223;27;20206;-70
2021/11/07 08:30:40;;;;;;;58.38;2.80;;;6.20;1.00;;;;;;5133577;27;20222;-70
2021/11/07 08:33:07;;;;;;;58.28;2.80;;;6.30;1.00;;;;;;5133051;27;20620;-70
2021/11/07 08:35:39;;;;;;;58.30;2.80;;;6.40;1.00;;;;;;5132637;27;20223;-70
2021/11/07 08:38:10;;;;;;;58.40;3.00;;;6.50;1.00;;;;;;5133955;27;20302;-70
2021/11/07 08:40:40;;;;;;;58.30;2.60;;;6.50;1.00;;;;;;5133153;27;20226;-70
2021/11/07 08:43:12;;;;;;;58.25;3.10;;;6.50;1.00;;;;;;5133273;27;20629;-69
2021/11/07 09:02:26;;;;;;;58.50;2.90;;;6.60;1.00;;;;;;5133146;27;20287;-70
2021/11/07 09:04:58;;;;;;;58.38;3.20;;;6.80;1.00;;;;;;5133159;27;20682;-69
2021/11/07 09:07:38;;;;;;;58.08;2.90;;;7.00;1.00;;;;;;5132945;27;20207;-70
2021/11/07 09:10:06;;;;;;;58.75;4.07;;;7.20;1.00;;;;;;5132680;27;20268;-70
2021/11/07 09:12:33;;;;;;;59.17;3.75;;;7.20;1.00;;;;;;5132873;27;20220;-69
2021/11/07 09:15:00;;;;;;;58.40;3.20;;;7.30;1.00;;;;;;5132555;27;20668;-69
2021/11/07 09:17:29;;;;;;;58.53;2.75;;;7.30;1.00;;;;;;5132348;27;20293;-69
2021/11/07 09:19:57;;;;;;;58.47;3.10;;;7.60;1.00;;;;;;5132982;27;20199;-69
2021/11/07 09:22:33;;;;;;;58.05;2.67;;;8.10;1.00;;;;;;5132915;27;20203;-69
2021/11/07 09:25:02;;;;;;;58.10;2.70;;;8.90;1.00;;;;;;5131578;27;20273;-69
2021/11/07 09:27:33;;;;;;;58.43;3.00;;;9.90;1.00;;;;;;5132166;27;20455;-69
2021/11/07 09:30:05;;;;;;;57.97;2.70;;;10.60;1.00;;;;;;5132273;27;20562;-69
2021/11/07 09:32:43;;;;;;;58.17;2.73;;;10.70;1.00;;;;;;5132608;27;20483;-69
2021/11/07 09:35:19;;;;;;;58.07;2.77;;;10.60;1.00;;;;;;5131877;27;20535;-68
2021/11/07 09:37:51;;;;;;;57.87;2.80;;;10.30;1.00;;;;;;5131922;27;20451;-69
2021/11/07 09:40:19;;;;;;;58.17;3.30;;;9.90;1.00;;;;;;5132686;27;20471;-69
2021/11/07 09:43:14;;;;;;;58.13;3.13;;;9.50;1.00;;;;;;5132693;27;20450;-69
2021/11/07 09:45:58;;;;;;;58.13;2.73;;;9.30;1.00;;;;;;5132369;27;20441;-69
2021/11/07 09:48:28;;;;;;;60.17;3.17;;;9.10;1.00;;;;;;5132234;27;20532;-69
2021/11/07 09:50:55;;;;;;;58.30;3.23;;;9.00;1.00;;;;;;5133829;27;20474;-69
2021/11/07 09:53:24;;;;;;;58.10;3.17;;;9.10;1.00;;;;;;5136470;27;20520;-69
2021/11/07 09:55:52;;;;;;;57.93;2.70;;;9.30;1.00;;;;;;5135881;27;20810;-69
2021/11/07 09:58:18;;;;;;;57.97;2.87;;;9.50;1.00;;;;;;5134159;27;21059;-69
2021/11/07 10:00:48;;;;;;;57.83;2.40;;;9.60;1.00;;;;;;5136055;27;20911;-69
2021/11/07 10:03:18;;;;;;;58.57;3.40;;;9.70;1.00;;;;;;5136041;27;20449;-69
2021/11/07 10:05:49;;;;;;;58.03;2.60;;;9.80;1.00;;;;;;5136365;27;20439;-69
2021/11/07 10:08:17;;;;;;;58.07;2.67;;;9.70;1.00;;;;;;5135906;27;20547;-69
2021/11/07 10:10:54;;;;;;;58.17;2.70;;;9.60;1.00;;;;;;5136247;27;20471;-69
2021/11/07 10:13:23;;;;;;;58.10;2.90;;;9.40;1.00;;;;;;5136089;27;20572;-69
2021/11/07 10:16:00;;;;;;;58.30;2.80;;;9.30;1.00;;;;;;5135566;27;20450;-69
2021/11/07 10:18:34;;;;;;;58.07;2.67;;;9.30;1.00;;;;;;5135959;27;20450;-68
2021/11/07 10:21:05;;;;;;;58.07;3.27;;;9.50;1.00;;;;;;5135755;27;20475;-70
2021/11/07 10:23:35;;;;;;;58.20;2.67;;;9.60;1.00;;;;;;5136182;27;20457;-70
2021/11/07 10:26:12;;;;;;;57.93;2.60;;;9.80;1.00;;;;;;5135733;27;20457;-70
2021/11/07 10:28:46;;;;;;;58.50;3.63;;;10.10;1.00;;;;;;5133592;27;20507;-70
2021/11/07 10:31:18;;;;;;;57.87;2.70;;;10.40;1.00;;;;;;5135986;27;20548;-70
2021/11/07 10:33:59;;;;;;;57.93;2.60;;;10.60;1.00;;;;;;5135837;27;20906;-70
2021/11/07 10:39:46;;;;;;;57.97;2.63;;;11.20;1.00;;;;;;5098011;27;20793;-69
2021/11/07 10:42:23;;;;;;;58.07;2.80;;;11.30;1.00;;;;;;5135826;27;20482;-69
2021/11/07 10:45:11;;;;;;;58.13;2.70;;;11.70;1.00;;;;;;5135511;27;20506;-69
2021/11/07 10:53:14;;;;;;;57.80;2.63;;;13.90;1.00;;;;;;5135424;27;20544;-70
2021/11/07 10:55:43;;;;;;;58.97;3.10;;;14.40;1.00;;;;;;5135008;27;20480;-69
2021/11/07 10:58:11;;;;;;;58.37;2.70;;;15.10;1.00;;;;;;5135033;27;20793;-69
2021/11/07 11:00:40;;;;;;;58.60;3.10;;;16.00;1.00;;;;;;5132930;27;20468;-70
2021/11/07 11:03:08;;;;;;;58.27;2.80;;;16.10;1.00;;;;;;5135164;27;20539;-70
2021/11/07 11:05:40;;;;;;;57.37;2.50;;;16.00;1.00;;;;;;5135015;27;20440;-70
2021/11/07 11:08:14;;;;;;;58.07;2.73;;;15.70;1.00;;;;;;5135342;27;20498;-69
2021/11/07 11:10:53;;;;;;;58.07;2.60;;;15.20;1.00;;;;;;5134319;27;20529;-69
2021/11/07 11:13:31;;;;;;;58.10;2.40;;;14.70;1.00;;;;;;5134775;27;20980;-69
2021/11/07 11:19:16;;;;;;;57.87;2.60;;;13.80;1.00;;;;;;5134662;27;20417;-69
2021/11/07 11:21:57;;;;;;;57.87;2.60;;;13.80;1.00;;;;;;5134723;27;21136;-70
2021/11/07 11:30:26;;;;;;;58.17;2.90;;;14.00;1.00;;;;;;5110220;27;20452;-69
2021/11/07 11:32:56;;;;;;;57.93;2.70;;;13.80;1.00;;;;;;5114129;28;20444;-69
2021/11/07 11:35:28;;;;;;;57.47;2.40;;;13.80;1.00;;;;;;5113918;28;20823;-69
2021/11/07 11:38:09;;;;;;;57.97;2.60;;;14.00;1.00;;;;;;5113496;28;20449;-69
2021/11/07 11:40:49;;;;;;;57.77;2.37;;;14.20;1.00;;;;;;5113669;28;20846;-69
2021/11/07 11:43:19;;;;;;;57.93;2.60;;;14.00;1.00;;;;;;5114348;28;20445;-69
2021/11/07 11:45:55;;;;;;;58.03;2.40;;;14.10;1.00;;;;;;5113526;28;20449;-69
2021/11/07 11:51:34;;;;;;;57.70;2.77;;;14.70;1.00;;;;;;5113259;28;20880;-69
2021/11/07 11:54:39;;;;;;;57.97;2.90;;;15.20;1.00;;;;;;5113638;28;20477;-69
2021/11/07 11:57:13;;;;;;;58.10;2.50;;;15.30;1.00;;;;;;5113160;28;20441;-69
2021/11/07 11:59:47;;;;;;;57.87;2.40;;;15.50;1.00;;;;;;5113391;28;20441;-69
2021/11/07 12:02:21;;;;;;;57.73;2.60;;;16.70;1.00;;;;;;5119603;27;20457;-69
2021/11/07 12:05:22;;;;;;;58.37;2.80;;;18.00;1.00;;;;;;5133968;27;20437;-69
2021/11/07 12:08:28;;;;;;;57.97;2.40;;;19.80;1.00;;;;;;5100294;27;20467;-69
2021/11/07 12:11:15;;;;;;;58.27;2.60;;;21.90;1.00;;;;;;5133414;27;20471;-69
2021/11/07 12:13:48;;;;;;;58.17;2.40;;;21.30;1.00;;;;;;5133510;27;20480;-69
2021/11/07 12:16:22;;;;;;;58.07;2.43;;;20.10;1.00;;;;;;5133726;27;20445;-69
2021/11/07 12:19:06;;;;;;;57.77;3.07;;;18.90;1.00;;;;;;5133361;27;20440;-69
2021/11/07 12:22:02;;;;;;;57.83;2.50;;;18.10;1.00;;;;;;5133637;27;20459;-69
2021/11/07 12:24:32;;;;;;;58.30;2.60;;;17.30;1.00;;;;;;5128059;27;20459;-69
2021/11/07 12:27:22;;;;;;;57.50;2.40;;;16.90;1.00;;;;;;5133297;27;20487;-69
2021/11/07 12:29:52;;;;;;;57.57;2.40;;;16.60;1.00;;;;;;5133474;27;20871;-69
2021/11/07 12:32:19;;;;;;;58.27;3.10;;;16.50;1.00;;;;;;5132892;27;21401;-69
2021/11/07 12:35:06;;;;;;;58.13;2.60;;;16.30;1.00;;;;;;5131391;27;20485;-69
2021/11/07 12:40:57;;;;;;;58.17;2.83;;;15.70;1.00;;;;;;5132791;27;20463;-69
2021/11/07 12:43:26;;;;;;;58.07;2.80;;;15.30;1.00;;;;;;5133285;27;20884;-69
2021/11/07 12:45:58;;;;;;;58.30;2.90;;;15.20;1.00;;;;;;5132953;27;20573;-69
2021/11/07 12:48:43;;;;;;;57.93;2.50;;;15.10;1.00;;;;;;5133185;27;20478;-69
2021/11/07 12:51:13;;;;;;;57.83;2.80;;;14.90;1.00;;;;;;5133226;27;20471;-69
2021/11/07 12:54:03;;;;;;;59.07;3.33;;;14.70;1.00;;;;;;5133106;27;20476;-69
2021/11/07 12:56:40;;;;;;;58.10;2.93;;;14.70;1.00;;;;;;5132801;27;20948;-69
2021/11/07 12:59:09;;;;;;;57.67;2.40;;;14.60;1.00;;;;;;5132679;27;20448;-69
2021/11/07 13:02:06;;;;;;;57.93;2.50;;;14.40;1.00;;;;;;5132748;27;20906;-69
2021/11/07 13:04:40;;;;;;;57.83;2.70;;;14.20;1.00;;;;;;5125931;27;20449;-69
2021/11/07 13:07:11;;;;;;;57.87;2.60;;;14.30;1.00;;;;;;5132578;27;20444;-69
2021/11/07 13:09:44;;;;;;;58.50;2.70;;;14.30;1.00;;;;;;5132757;27;20802;-69
2021/11/07 13:12:21;;;;;;;58.40;2.60;;;14.30;1.00;;;;;;5132585;27;20943;-69
2021/11/07 13:18:10;;;;;;;58.17;2.50;;;13.90;1.00;;;;;;5130536;27;20480;-68
2021/11/07 13:20:56;;;;;;;58.10;2.80;;;13.70;1.00;;;;;;5132412;27;20481;-69
2021/11/07 13:23:40;;;;;;;58.27;2.73;;;13.50;1.00;;;;;;5132789;27;20452;-69
2021/11/07 13:26:12;;;;;;;58.03;2.60;;;13.40;1.00;;;;;;5132151;27;20940;-68
2021/11/07 13:28:41;;;;;;;57.93;2.67;;;13.10;1.00;;;;;;5132604;27;20452;-69
2021/11/07 13:31:14;;;;;;;58.23;2.70;;;13.00;1.00;;;;;;5132624;27;20809;-69
2021/11/07 13:33:44;;;;;;;58.47;2.90;;;12.70;1.00;;;;;;5132167;27;20583;-69
2021/11/07 13:36:12;;;;;;;58.47;2.73;;;12.60;1.00;;;;;;5130531;27;20488;-69
2021/11/07 13:38:46;;;;;;;58.30;2.80;;;12.60;1.00;;;;;;5132349;27;20437;-69
2021/11/07 13:41:18;;;;;;;58.60;2.93;;;12.60;1.00;;;;;;5132024;27;20521;-69
2021/11/07 13:43:51;;;;;;;58.17;2.60;;;12.60;1.00;;;;;;5132454;27;20444;-69
2021/11/07 13:46:18;;;;;;;58.27;2.60;;;12.60;1.00;;;;;;5132270;27;20527;-69
2021/11/07 13:48:45;;;;;;;57.97;2.70;;;12.70;1.00;;;;;;5132431;27;20468;-69
2021/11/07 13:51:12;;;;;;;58.20;2.67;;;12.70;1.00;;;;;;5132673;27;20561;-69
2021/11/07 13:53:42;;;;;;;58.40;2.90;;;12.60;1.00;;;;;;5131914;27;20476;-69
2021/11/07 13:56:12;;;;;;;58.23;2.70;;;12.50;1.00;;;;;;5131299;27;20444;-69